Time;durP1;ratioP1;P1;durP2;ratioP2;P2;SDS_P1;SDS_P2;PMS_P1;PMS_P2;Temp;Humidity;BMP_temperature;BMP_pressure;BME280_temperature;BME280_humidity;BME280_pressure;Samples;Min_cycle;Max_cycle;Signal;HPM_P1;HPM_P2
2023/08/01 00:01:29;;;;;;;21.00;13.07;;;;;;;16.82;100.00;99805.59;5313482;28;20547;-68
2023/08/01 00:04:01;;;;;;;18.60;11.80;;;;;;;16.83;100.00;99792.94;5318068;28;20078;-68
2023/08/01 00:06:32;;;;;;;23.75;12.70;;;;;;;16.80;100.00;99787.91;5313876;28;20430;-68
2023/08/01 00:09:04;;;;;;;18.92;11.63;;;;;;;16.69;100.00;99789.19;5308254;28;20075;-70
2023/08/01 00:11:35;;;;;;;16.30;10.88;;;;;;;16.69;100.00;99793.75;5314657;28;20136;-68
2023/08/01 00:14:06;;;;;;;17.83;11.30;;;;;;;16.60;100.00;99779.50;5315486;28;20402;-68
2023/08/01 00:16:37;;;;;;;20.70;11.25;;;;;;;16.64;100.00;99773.59;5307925;27;20024;-68
2023/08/01 00:19:09;;;;;;;17.25;10.32;;;;;;;16.62;100.00;99778.31;5315828;28;20553;-68
2023/08/01 00:21:40;;;;;;;19.48;11.70;;;;;;;16.56;100.00;99787.13;5318157;28;20758;-68
2023/08/01 00:24:12;;;;;;;18.05;10.48;;;;;;;16.55;100.00;99795.38;5316547;28;20055;-68
2023/08/01 00:26:43;;;;;;;19.63;11.93;;;;;;;16.53;100.00;99787.50;5315129;28;20410;-68
2023/08/01 00:29:14;;;;;;;19.83;11.95;;;;;;;16.49;100.00;99785.34;5315737;28;20154;-68
2023/08/01 00:31:46;;;;;;;17.42;11.02;;;;;;;16.46;100.00;99781.16;5313981;28;20548;-68
2023/08/01 00:34:17;;;;;;;16.35;10.85;;;;;;;16.45;100.00;99782.16;5312579;28;20481;-69
2023/08/01 00:36:49;;;;;;;20.85;11.35;;;;;;;16.49;100.00;99778.09;5319020;28;20024;-68
2023/08/01 00:39:20;;;;;;;19.30;11.35;;;;;;;16.54;100.00;99772.16;5310715;28;20055;-69
2023/08/01 00:41:51;;;;;;;20.38;12.38;;;;;;;16.43;100.00;99768.03;5306474;28;20068;-69
2023/08/01 00:44:23;;;;;;;19.00;11.57;;;;;;;16.45;100.00;99779.47;5319263;28;20047;-68
2023/08/01 00:46:54;;;;;;;19.65;12.23;;;;;;;16.44;100.00;99780.50;5312625;28;20028;-68
2023/08/01 00:49:26;;;;;;;18.27;12.15;;;;;;;16.42;100.00;99771.78;5313106;28;20558;-68
2023/08/01 00:51:57;;;;;;;19.20;12.68;;;;;;;16.46;100.00;99773.91;5320244;28;20023;-68
2023/08/01 00:54:35;;;;;;;21.60;11.07;;;;;;;16.40;100.00;99769.25;5316262;28;20099;-69
2023/08/01 00:57:06;;;;;;;19.35;11.82;;;;;;;16.37;100.00;99777.69;5315592;28;20476;-68
2023/08/01 00:59:38;;;;;;;13.98;10.25;;;;;;;16.41;100.00;99775.47;5313737;27;20122;-69
2023/08/01 01:02:09;;;;;;;17.40;11.43;;;;;;;16.33;100.00;99780.94;5311323;28;20038;-68
2023/08/01 01:04:41;;;;;;;18.52;10.57;;;;;;;16.28;100.00;99773.41;5318978;28;20034;-69
2023/08/01 01:07:12;;;;;;;16.52;10.30;;;;;;;16.24;100.00;99772.06;5319203;28;20027;-68
2023/08/01 01:09:44;;;;;;;16.45;10.18;;;;;;;16.22;100.00;99766.91;5312997;28;20068;-68
2023/08/01 01:12:15;;;;;;;16.45;10.40;;;;;;;16.17;100.00;99768.47;5305791;28;20035;-68
2023/08/01 01:14:46;;;;;;;17.15;10.63;;;;;;;16.10;100.00;99759.41;5315966;28;20027;-68
2023/08/01 01:17:18;;;;;;;18.60;10.63;;;;;;;16.05;100.00;99759.94;5318814;28;20118;-68
2023/08/01 01:19:49;;;;;;;16.92;10.77;;;;;;;16.06;100.00;99762.47;5317368;28;20481;-68
2023/08/01 01:22:21;;;;;;;19.48;10.63;;;;;;;15.99;100.00;99766.03;5311880;28;21939;-68
2023/08/01 01:24:55;;;;;;;15.18;9.98;;;;;;;15.93;100.00;99769.47;5305134;28;20027;-68
2023/08/01 01:27:27;;;;;;;16.95;9.60;;;;;;;15.94;100.00;99755.00;5312419;28;20031;-68
2023/08/01 01:30:00;;;;;;;20.55;11.00;;;;;;;15.96;100.00;99763.72;5311646;28;20051;-69
2023/08/01 01:32:32;;;;;;;18.20;10.15;;;;;;;15.93;100.00;99767.59;5312945;28;20077;-68
2023/08/01 01:35:04;;;;;;;17.73;10.30;;;;;;;15.91;100.00;99763.41;5313338;28;20031;-67
2023/08/01 01:37:35;;;;;;;20.70;9.90;;;;;;;15.88;100.00;99762.75;5313921;28;20031;-68
2023/08/01 01:40:07;;;;;;;19.77;9.23;;;;;;;15.82;100.00;99763.50;5314875;28;20100;-69
2023/08/01 01:42:39;;;;;;;17.63;10.00;;;;;;;15.84;100.00;99756.06;5312367;28;20015;-68
2023/08/01 01:45:10;;;;;;;25.83;10.10;;;;;;;15.86;100.00;99758.59;5315863;28;20034;-68
2023/08/01 01:47:41;;;;;;;19.92;10.10;;;;;;;15.86;100.00;99754.03;5317832;28;20055;-69
2023/08/01 01:50:13;;;;;;;20.05;9.68;;;;;;;15.85;100.00;99751.53;5315572;28;20083;-69
2023/08/01 01:52:45;;;;;;;19.48;10.30;;;;;;;15.81;100.00;99756.41;5308657;28;20043;-68
2023/08/01 01:55:16;;;;;;;22.70;10.10;;;;;;;15.68;100.00;99758.81;5311547;28;20323;-68
2023/08/01 01:57:47;;;;;;;20.55;11.07;;;;;;;15.63;100.00;99754.00;5308586;28;20409;-68
2023/08/01 02:00:19;;;;;;;20.10;11.18;;;;;;;15.62;100.00;99752.31;5318545;28;20023;-69
2023/08/01 02:02:50;;;;;;;19.25;11.60;;;;;;;15.55;100.00;99755.88;5317925;28;20456;-68
2023/08/01 02:05:21;;;;;;;20.05;11.23;;;;;;;15.57;100.00;99765.47;5317502;28;20024;-69
2023/08/01 02:07:53;;;;;;;21.60;12.20;;;;;;;15.56;100.00;99752.19;5313720;28;20027;-68
2023/08/01 02:10:24;;;;;;;23.98;11.98;;;;;;;15.53;100.00;99750.66;5315038;28;20034;-69
2023/08/01 02:12:55;;;;;;;21.50;11.48;;;;;;;15.49;100.00;99754.72;5312398;28;20099;-69
2023/08/01 02:15:27;;;;;;;23.10;12.68;;;;;;;15.49;100.00;99752.03;5330661;27;20035;-68
2023/08/01 02:17:58;;;;;;;23.35;13.40;;;;;;;15.49;100.00;99754.72;5317751;28;20080;-68
2023/08/01 02:20:29;;;;;;;24.60;13.93;;;;;;;15.45;100.00;99753.41;5311250;28;20014;-69
2023/08/01 02:23:01;;;;;;;22.85;13.32;;;;;;;15.49;100.00;99758.28;5317438;28;20093;-68
2023/08/01 02:25:32;;;;;;;28.02;14.65;;;;;;;15.41;100.00;99755.59;5312177;28;20019;-68
2023/08/01 02:28:03;;;;;;;31.77;15.48;;;;;;;15.40;100.00;99751.25;5312198;28;20112;-68
2023/08/01 02:30:36;;;;;;;27.05;15.13;;;;;;;15.50;100.00;99756.41;5314597;28;20388;-69
2023/08/01 02:33:07;;;;;;;31.80;17.02;;;;;;;15.49;100.00;99755.59;5309020;28;20038;-69
2023/08/01 02:35:38;;;;;;;30.50;16.25;;;;;;;15.63;100.00;99754.00;5314894;28;20023;-68
2023/08/01 02:38:10;;;;;;;27.75;16.52;;;;;;;15.58;100.00;99764.44;5314083;28;20043;-68
2023/08/01 02:40:41;;;;;;;28.83;16.00;;;;;;;15.55;100.00;99766.63;5310703;28;20015;-69
2023/08/01 02:43:12;;;;;;;28.77;17.42;;;;;;;15.69;100.00;99768.59;5308605;28;20024;-68
2023/08/01 02:45:44;;;;;;;30.30;17.95;;;;;;;15.72;100.00;99768.22;5308198;28;20532;-68
2023/08/01 02:48:16;;;;;;;32.67;17.05;;;;;;;15.69;100.00;99780.16;5307063;28;20489;-69
2023/08/01 02:50:48;;;;;;;35.10;17.77;;;;;;;15.61;100.00;99772.16;5314751;28;20152;-68
2023/08/01 02:53:19;;;;;;;30.02;17.02;;;;;;;15.61;100.00;99777.53;5319084;27;20374;-68
2023/08/01 02:55:50;;;;;;;32.35;16.35;;;;;;;15.63;100.00;99780.06;5320131;28;20503;-69
2023/08/01 02:58:21;;;;;;;29.60;16.83;;;;;;;15.80;100.00;99780.81;5326313;27;20032;-69
2023/08/01 03:00:53;;;;;;;35.92;17.85;;;;;;;15.86;100.00;99772.03;5318059;28;20027;-68
2023/08/01 03:03:24;;;;;;;35.08;18.83;;;;;;;15.68;100.00;99772.28;5309437;28;20043;-69
2023/08/01 03:05:55;;;;;;;35.00;19.90;;;;;;;15.65;100.00;99770.78;5318459;28;20032;-69
2023/08/01 03:08:27;;;;;;;32.47;18.35;;;;;;;15.63;100.00;99769.28;5318163;28;20055;-68
2023/08/01 03:10:58;;;;;;;37.60;19.27;;;;;;;15.56;100.00;99758.38;5315304;28;20051;-68
2023/08/01 03:13:30;;;;;;;38.50;19.30;;;;;;;15.61;100.00;99763.22;5312724;28;20028;-68
2023/08/01 03:16:01;;;;;;;37.92;20.13;;;;;;;15.51;100.00;99774.19;5313531;28;20032;-68
2023/08/01 03:18:32;;;;;;;39.15;21.02;;;;;;;15.52;100.00;99778.59;5318301;28;20037;-68
2023/08/01 03:21:04;;;;;;;33.92;19.48;;;;;;;15.73;100.00;99763.69;5308437;28;20040;-69
2023/08/01 03:23:35;;;;;;;39.97;21.35;;;;;;;15.62;100.00;99763.06;5309176;28;20485;-68
2023/08/01 03:26:07;;;;;;;35.30;20.80;;;;;;;15.68;100.00;99770.41;5320693;28;20271;-68
2023/08/01 03:28:38;;;;;;;42.72;21.10;;;;;;;15.65;100.00;99762.72;5316006;28;20110;-68
2023/08/01 03:31:10;;;;;;;39.70;22.40;;;;;;;15.68;100.00;99761.50;5315361;28;20485;-68
2023/08/01 03:33:41;;;;;;;43.70;22.33;;;;;;;15.67;100.00;99763.38;5312264;28;20070;-68
2023/08/01 03:36:13;;;;;;;42.92;22.67;;;;;;;15.60;100.00;99770.47;5313506;28;20023;-69
2023/08/01 03:38:44;;;;;;;41.83;23.90;;;;;;;15.49;100.00;99770.84;5319430;28;20030;-68
2023/08/01 03:41:16;;;;;;;46.58;24.27;;;;;;;15.63;100.00;99777.34;5307952;28;20032;-68
2023/08/01 03:43:47;;;;;;;53.22;25.83;;;;;;;15.68;100.00;99777.66;5316268;28;20602;-68
2023/08/01 03:46:18;;;;;;;43.55;24.83;;;;;;;15.70;100.00;99781.00;5319221;28;20027;-69
2023/08/01 03:48:50;;;;;;;46.15;26.60;;;;;;;15.70;100.00;99775.63;5314364;28;20028;-68
2023/08/01 03:51:21;;;;;;;46.95;27.13;;;;;;;15.70;100.00;99778.31;5308502;28;20080;-68
2023/08/01 03:53:52;;;;;;;45.47;26.92;;;;;;;15.77;100.00;99776.63;5314199;28;20497;-68
2023/08/01 03:56:24;;;;;;;45.15;26.13;;;;;;;15.79;100.00;99771.91;5319155;28;20039;-68
2023/08/01 03:58:55;;;;;;;50.40;27.95;;;;;;;15.72;100.00;99778.97;5320710;28;20485;-69
2023/08/01 04:01:26;;;;;;;47.53;26.48;;;;;;;15.74;100.00;99782.34;5315860;28;20612;-69
2023/08/01 04:03:58;;;;;;;45.45;26.85;;;;;;;15.77;100.00;99779.31;5316413;28;20034;-68
2023/08/01 04:06:29;;;;;;;46.15;27.33;;;;;;;15.78;100.00;99769.38;5318505;28;20114;-68
2023/08/01 04:09:00;;;;;;;49.08;27.33;;;;;;;15.74;100.00;99771.59;5307415;28;20055;-69
2023/08/01 04:11:32;;;;;;;49.42;27.02;;;;;;;15.72;100.00;99772.75;5314313;28;20027;-69
2023/08/01 04:14:03;;;;;;;45.95;27.13;;;;;;;15.79;100.00;99769.22;5313406;28;20023;-68
2023/08/01 04:16:35;;;;;;;48.53;26.58;;;;;;;15.76;100.00;99776.78;5315795;28;20081;-69
2023/08/01 04:19:06;;;;;;;44.28;25.85;;;;;;;15.78;100.00;99772.06;5315559;28;20035;-68
2023/08/01 04:21:37;;;;;;;48.78;26.23;;;;;;;15.91;100.00;99776.88;5320013;28;20084;-68
2023/08/01 04:24:09;;;;;;;47.78;26.45;;;;;;;15.77;100.00;99776.63;5318390;28;20030;-69
2023/08/01 04:26:40;;;;;;;47.13;25.70;;;;;;;15.72;100.00;99768.22;5316458;28;20043;-68
2023/08/01 04:29:15;;;;;;;47.75;25.63;;;;;;;15.70;100.00;99764.84;5317797;28;20487;-68
2023/08/01 04:31:46;;;;;;;45.13;26.65;;;;;;;15.73;100.00;99769.94;5319773;28;20023;-68
2023/08/01 04:34:17;;;;;;;50.38;26.23;;;;;;;15.85;100.00;99765.81;5314970;28;20035;-68
2023/08/01 04:36:49;;;;;;;49.55;26.02;;;;;;;15.91;100.00;99771.50;5320145;28;20020;-68
2023/08/01 04:39:20;;;;;;;51.85;25.98;;;;;;;15.88;100.00;99780.78;5308164;28;20091;-68
2023/08/01 04:41:51;;;;;;;50.95;26.48;;;;;;;15.81;100.00;99775.25;5315256;28;20028;-68
2023/08/01 04:44:23;;;;;;;47.40;25.33;;;;;;;15.91;100.00;99771.50;5305359;28;20031;-68
2023/08/01 04:46:54;;;;;;;51.90;26.23;;;;;;;15.83;100.00;99767.84;5312800;28;20027;-68
2023/08/01 04:49:26;;;;;;;47.10;25.55;;;;;;;15.88;100.00;99786.97;5319011;27;20087;-68
2023/08/01 04:51:57;;;;;;;46.17;26.63;;;;;;;15.95;100.00;99794.31;5313389;28;20031;-69
2023/08/01 04:54:28;;;;;;;43.28;25.90;;;;;;;15.93;100.00;99790.97;5308795;28;20074;-70
2023/08/01 04:57:00;;;;;;;46.00;26.40;;;;;;;15.94;100.00;99795.38;5316944;28;20036;-68
2023/08/01 04:59:31;;;;;;;49.70;27.13;;;;;;;15.90;100.00;99796.72;5307924;28;20058;-69
2023/08/01 05:02:02;;;;;;;48.28;25.63;;;;;;;15.86;100.00;99794.38;5316192;28;20023;-68
2023/08/01 05:04:34;;;;;;;48.63;25.27;;;;;;;15.95;100.00;99791.63;5308729;28;20084;-69
2023/08/01 05:07:06;;;;;;;45.15;25.25;;;;;;;16.02;100.00;99796.13;5307595;28;20063;-68
2023/08/01 05:09:37;;;;;;;46.55;26.17;;;;;;;16.05;100.00;99787.72;5310927;27;20221;-69
2023/08/01 05:12:09;;;;;;;49.30;25.10;;;;;;;16.01;100.00;99788.22;5306157;28;20107;-68
2023/08/01 05:14:40;;;;;;;37.65;23.75;;;;;;;15.94;100.00;99793.50;5316882;28;20019;-69
2023/08/01 05:17:11;;;;;;;45.72;24.27;;;;;;;15.98;100.00;99796.69;5306034;28;20521;-68
2023/08/01 05:19:43;;;;;;;39.67;24.25;;;;;;;15.97;100.00;99792.28;5303554;28;20144;-69
2023/08/01 05:22:14;;;;;;;40.35;23.88;;;;;;;15.94;100.00;99785.44;5311753;28;20020;-68
2023/08/01 05:24:45;;;;;;;39.08;23.63;;;;;;;15.90;100.00;99794.88;5307289;28;20028;-68
2023/08/01 05:27:17;;;;;;;34.63;22.20;;;;;;;15.98;100.00;99789.44;5318407;28;20030;-69
2023/08/01 05:29:48;;;;;;;41.30;23.35;;;;;;;15.89;100.00;99798.56;5305461;28;20396;-68
2023/08/01 05:32:20;;;;;;;39.15;22.52;;;;;;;15.97;100.00;99797.69;5302784;28;20107;-68
2023/08/01 05:34:51;;;;;;;35.72;21.90;;;;;;;15.97;100.00;99801.19;5311679;28;20055;-68
2023/08/01 05:37:22;;;;;;;37.78;23.05;;;;;;;15.96;100.00;99799.53;5315686;28;20687;-68
2023/08/01 05:39:54;;;;;;;36.97;22.58;;;;;;;16.02;100.00;99798.00;5305728;28;20024;-68
2023/08/01 05:42:25;;;;;;;39.47;23.17;;;;;;;16.04;100.00;99796.78;5317905;28;20051;-68
2023/08/01 05:44:56;;;;;;;33.60;22.25;;;;;;;16.29;100.00;99802.00;5314199;28;20420;-68
2023/08/01 05:47:28;;;;;;;41.40;22.50;;;;;;;16.22;100.00;99801.88;5314333;28;20016;-68
2023/08/01 05:49:59;;;;;;;43.65;23.60;;;;;;;16.23;100.00;99813.47;5313260;28;20031;-69
2023/08/01 05:52:31;;;;;;;38.92;23.55;;;;;;;16.23;100.00;99813.47;5310976;28;20038;-68
2023/08/01 05:55:02;;;;;;;37.58;23.40;;;;;;;16.35;100.00;99805.81;5306425;28;20501;-69
2023/08/01 05:57:34;;;;;;;41.65;21.88;;;;;;;16.34;100.00;99821.13;5311207;28;20028;-68
2023/08/01 06:00:06;;;;;;;40.15;22.23;;;;;;;16.25;100.00;99811.44;5315921;28;20099;-68
2023/08/01 06:02:37;;;;;;;33.42;22.13;;;;;;;16.23;100.00;99814.31;5316064;28;20080;-68
2023/08/01 06:05:09;;;;;;;35.28;21.13;;;;;;;16.36;100.00;99821.78;5298497;28;20023;-68
2023/08/01 06:07:40;;;;;;;35.88;22.88;;;;;;;16.35;100.00;99824.66;5313495;28;20032;-68
2023/08/01 06:10:11;;;;;;;38.15;22.10;;;;;;;16.40;100.00;99822.28;5308792;28;20016;-68
2023/08/01 06:12:43;;;;;;;38.00;22.45;;;;;;;16.53;100.00;99816.25;5309280;28;20035;-69
2023/08/01 06:15:14;;;;;;;34.88;21.90;;;;;;;16.67;100.00;99827.06;5317457;28;20028;-68
2023/08/01 06:17:46;;;;;;;36.13;23.20;;;;;;;16.79;100.00;99832.03;5304331;28;20096;-68
2023/08/01 06:20:17;;;;;;;41.33;23.13;;;;;;;16.89;100.00;99829.94;5311581;28;20027;-69
2023/08/01 06:22:49;;;;;;;32.65;21.98;;;;;;;16.89;100.00;99819.16;5311785;28;20030;-68
2023/08/01 06:25:20;;;;;;;35.85;21.85;;;;;;;16.83;100.00;99839.56;5322967;28;20526;-68
2023/08/01 06:27:51;;;;;;;33.10;20.58;;;;;;;16.74;100.00;99834.41;5321848;28;20032;-68
2023/08/01 06:30:22;;;;;;;30.80;20.13;;;;;;;16.58;100.00;99828.16;5325559;28;20023;-68
2023/08/01 06:32:54;;;;;;;32.78;21.30;;;;;;;16.62;100.00;99837.53;5312804;28;20034;-68
2023/08/01 06:35:25;;;;;;;30.50;21.83;;;;;;;16.67;100.00;99835.16;5323332;28;20031;-68
2023/08/01 06:37:56;;;;;;;33.42;22.08;;;;;;;16.79;100.00;99835.56;5323472;28;20528;-68
2023/08/01 06:40:28;;;;;;;33.33;21.20;;;;;;;16.76;100.00;99827.00;5319488;28;20063;-68
2023/08/01 06:42:59;;;;;;;31.02;20.95;;;;;;;16.67;100.00;99845.09;5313902;28;20032;-68
2023/08/01 06:45:30;;;;;;;28.63;21.10;;;;;;;16.80;100.00;99831.84;5320732;28;20036;-68
2023/08/01 06:48:02;;;;;;;31.42;20.27;;;;;;;16.80;100.00;99839.09;5319571;28;20079;-68
2023/08/01 06:50:34;;;;;;;29.83;20.15;;;;;;;16.80;100.00;99836.41;5315386;28;20524;-68
2023/08/01 06:53:05;;;;;;;28.42;19.60;;;;;;;16.99;100.00;99841.31;5319637;28;20069;-68
2023/08/01 06:55:36;;;;;;;26.25;18.85;;;;;;;17.08;100.00;99844.72;5322834;27;20023;-68
2023/08/01 06:58:08;;;;;;;24.75;17.52;;;;;;;17.09;100.00;99843.72;5318163;27;21375;-68
2023/08/01 07:00:39;;;;;;;28.25;18.77;;;;;;;17.16;100.00;99846.50;5322947;28;20024;-68
2023/08/01 07:03:10;;;;;;;24.48;16.88;;;;;;;17.16;100.00;99850.06;5328051;27;20071;-68
2023/08/01 07:05:42;;;;;;;24.30;17.40;;;;;;;17.16;100.00;99843.81;5323175;27;20107;-68
2023/08/01 07:08:13;;;;;;;23.48;16.15;;;;;;;17.15;100.00;99853.75;5321503;28;20051;-68
2023/08/01 07:10:46;;;;;;;24.63;16.77;;;;;;;17.25;100.00;99851.63;5313052;27;20094;-68
2023/08/01 07:13:19;;;;;;;23.38;15.07;;;;;;;17.49;100.00;99863.16;5313722;28;20027;-69
2023/08/01 07:15:51;;;;;;;19.63;14.18;;;;;;;17.33;100.00;99860.66;5317072;28;20028;-68
2023/08/01 07:18:22;;;;;;;20.40;13.48;;;;;;;17.29;100.00;99854.78;5313939;28;20039;-68
2023/08/01 07:21:04;;;;;;;20.58;13.30;;;;;;;17.38;100.00;99848.28;5314233;28;20023;-68
2023/08/01 07:23:36;;;;;;;17.73;12.73;;;;;;;17.38;100.00;99842.88;5311489;28;20047;-68
2023/08/01 07:26:07;;;;;;;17.83;11.40;;;;;;;17.58;100.00;99828.81;5313746;28;20023;-69
2023/08/01 07:28:38;;;;;;;17.95;10.93;;;;;;;17.63;100.00;99842.59;5313718;28;20074;-68
2023/08/01 07:31:10;;;;;;;18.63;11.23;;;;;;;17.76;100.00;99842.75;5317034;28;20020;-68
2023/08/01 07:33:41;;;;;;;14.90;9.95;;;;;;;17.79;100.00;99842.38;5310166;27;20043;-68
2023/08/01 07:36:12;;;;;;;18.77;10.65;;;;;;;17.71;100.00;99845.19;5314492;28;20077;-69
2023/08/01 07:38:44;;;;;;;17.10;10.75;;;;;;;17.85;100.00;99848.06;5315284;28;20023;-68
2023/08/01 07:41:15;;;;;;;15.85;10.57;;;;;;;17.81;100.00;99858.38;5312300;28;20110;-68
2023/08/01 07:43:46;;;;;;;15.98;9.63;;;;;;;17.72;100.00;99846.00;5311799;28;20445;-69
2023/08/01 07:46:18;;;;;;;14.07;8.75;;;;;;;17.69;100.00;99855.31;5312416;28;20031;-68
2023/08/01 07:48:50;;;;;;;12.95;7.78;;;;;;;17.64;100.00;99852.34;5312816;28;20027;-68
2023/08/01 07:51:22;;;;;;;11.18;7.00;;;;;;;17.69;100.00;99849.94;5306316;28;20122;-68
2023/08/01 07:53:54;;;;;;;13.25;7.38;;;;;;;17.70;100.00;99856.16;5307681;28;20024;-68
2023/08/01 07:56:25;;;;;;;12.27;6.38;;;;;;;17.92;100.00;99857.91;5311820;28;20446;-68
2023/08/01 07:58:57;;;;;;;10.50;5.78;;;;;;;18.00;100.00;99860.50;5309571;28;20087;-69
2023/08/01 08:01:28;;;;;;;10.63;5.60;;;;;;;17.83;100.00;99865.28;5309974;28;20042;-68
2023/08/01 08:03:59;;;;;;;8.90;4.95;;;;;;;17.84;100.00;99849.94;5317974;28;20019;-69
2023/08/01 08:06:31;;;;;;;9.38;4.80;;;;;;;17.72;100.00;99841.47;5317725;28;20253;-69
2023/08/01 08:09:03;;;;;;;13.13;5.35;;;;;;;17.70;100.00;99854.31;5315246;28;20056;-69
2023/08/01 08:11:34;;;;;;;10.07;5.07;;;;;;;17.72;100.00;99864.91;5315047;28;20028;-69
2023/08/01 08:14:05;;;;;;;11.02;5.72;;;;;;;17.66;100.00;99862.94;5314026;28;20648;-69
2023/08/01 08:16:37;;;;;;;10.73;6.28;;;;;;;17.60;100.00;99865.41;5318107;28;20035;-68
2023/08/01 08:19:09;;;;;;;11.15;5.80;;;;;;;17.64;100.00;99865.84;5307449;28;20024;-69
2023/08/01 08:21:40;;;;;;;10.63;5.55;;;;;;;17.68;100.00;99850.97;5315955;28;20111;-68
2023/08/01 08:24:11;;;;;;;14.15;5.53;;;;;;;17.87;100.00;99859.50;5311082;27;20528;-69
2023/08/01 08:26:43;;;;;;;11.32;6.72;;;;;;;18.08;100.00;99869.50;5317960;28;20057;-70
2023/08/01 08:29:14;;;;;;;13.00;5.50;;;;;;;18.13;100.00;99864.38;5310866;28;20019;-68
2023/08/01 08:31:46;;;;;;;10.27;5.90;;;;;;;18.22;100.00;99872.19;5297735;28;20027;-69
2023/08/01 08:34:18;;;;;;;10.38;5.85;;;;;;;18.25;100.00;99865.53;5317985;28;20019;-69
2023/08/01 08:36:50;;;;;;;10.95;6.30;;;;;;;18.33;100.00;99864.59;5317204;28;20050;-69
2023/08/01 08:39:21;;;;;;;10.93;5.85;;;;;;;18.54;100.00;99864.63;5316403;28;20488;-69
2023/08/01 08:41:53;;;;;;;10.88;5.70;;;;;;;18.37;100.00;99860.47;5319723;28;20020;-69
2023/08/01 08:44:24;;;;;;;10.15;5.60;;;;;;;18.56;100.00;99867.09;5314690;28;20059;-69
2023/08/01 08:47:02;;;;;;;10.35;5.28;;;;;;;18.23;100.00;99875.72;5314305;28;20015;-68
2023/08/01 08:49:33;;;;;;;8.57;5.03;;;;;;;18.03;100.00;99872.78;5313279;28;20024;-68
2023/08/01 08:52:05;;;;;;;10.00;5.22;;;;;;;17.71;100.00;99877.56;5320087;28;20046;-68
2023/08/01 08:54:38;;;;;;;10.45;5.03;;;;;;;17.64;100.00;99887.41;5318766;28;20031;-68
2023/08/01 08:57:10;;;;;;;11.30;5.15;;;;;;;17.48;100.00;99887.63;5315101;28;20441;-67
2023/08/01 08:59:43;;;;;;;9.90;4.75;;;;;;;17.33;100.00;99887.59;5319064;28;20153;-68
2023/08/01 09:02:16;;;;;;;8.57;4.30;;;;;;;17.25;100.00;99896.63;5312119;28;20540;-67
2023/08/01 09:04:48;;;;;;;8.57;4.77;;;;;;;17.35;100.00;99897.19;5313308;28;20370;-68
2023/08/01 09:07:24;;;;;;;6.93;3.20;;;;;;;17.40;100.00;99885.84;5319122;28;20159;-68
2023/08/01 09:09:55;;;;;;;7.18;3.05;;;;;;;17.48;100.00;99893.00;5313714;28;20477;-68
2023/08/01 09:12:28;;;;;;;7.15;3.60;;;;;;;17.69;100.00;99898.50;5318868;28;20054;-68
2023/08/01 09:14:59;;;;;;;7.43;3.00;;;;;;;17.63;100.00;99897.38;5309987;28;20031;-68
2023/08/01 09:17:31;;;;;;;8.05;3.20;;;;;;;17.64;100.00;99895.50;5312257;28;20038;-68
2023/08/01 09:20:06;;;;;;;7.28;3.35;;;;;;;17.56;100.00;99895.59;5316454;28;20080;-67
2023/08/01 09:22:42;;;;;;;7.22;3.35;;;;;;;17.54;100.00;99903.06;5317370;28;20550;-68
2023/08/01 09:25:14;;;;;;;6.70;3.25;;;;;;;17.48;100.00;99910.03;5317661;27;20027;-67
2023/08/01 09:27:45;;;;;;;8.65;3.55;;;;;;;17.57;100.00;99910.78;5328450;27;20034;-68
2023/08/01 09:30:17;;;;;;;7.75;3.45;;;;;;;17.36;100.00;99916.91;5317265;28;20493;-69
2023/08/01 09:32:55;;;;;;;11.27;3.75;;;;;;;17.25;100.00;99920.88;5313566;28;20023;-68
2023/08/01 09:35:26;;;;;;;12.57;4.00;;;;;;;17.21;100.00;99922.28;5296390;28;20072;-67
2023/08/01 09:38:00;;;;;;;9.70;3.35;;;;;;;17.07;100.00;99923.94;5317659;28;20451;-68
2023/08/01 09:40:38;;;;;;;7.50;2.95;;;;;;;16.97;100.00;99924.19;5311139;28;20505;-68
2023/08/01 09:43:13;;;;;;;7.78;2.67;;;;;;;16.89;100.00;99920.72;5306187;28;20495;-67
2023/08/01 09:45:54;;;;;;;5.28;2.10;;;;;;;16.72;100.00;99926.22;5308610;27;20027;-67
2023/08/01 09:48:27;;;;;;;5.35;2.30;;;;;;;16.48;100.00;99929.06;5312852;28;20027;-66
2023/08/01 09:51:09;;;;;;;6.68;2.30;;;;;;;16.50;100.00;99922.47;5309768;28;20024;-66
2023/08/01 09:53:54;;;;;;;6.65;2.38;;;;;;;16.67;100.00;99926.72;5313628;28;20393;-67
2023/08/01 09:56:26;;;;;;;;;;;;;;;16.91;100.00;99926.75;5303078;28;20036;-67
2023/08/01 09:58:59;;;;;;;7.30;3.03;;;;;;;16.88;100.00;99935.22;5311041;28;20331;-67
2023/08/01 10:01:33;;;;;;;9.73;3.15;;;;;;;17.00;100.00;99934.59;5315355;28;20036;-67
2023/08/01 10:04:06;;;;;;;8.30;3.67;;;;;;;17.13;100.00;99933.97;5311413;28;20034;-66
2023/08/01 10:06:41;;;;;;;8.75;3.40;;;;;;;17.24;100.00;99935.41;5315767;28;20067;-68
2023/08/01 10:09:14;;;;;;;10.05;3.92;;;;;;;17.38;100.00;99942.66;5315021;28;20071;-67
2023/08/01 10:11:46;;;;;;;11.15;4.50;;;;;;;17.36;100.00;99930.41;5318705;28;20102;-68
2023/08/01 10:14:19;;;;;;;13.00;4.90;;;;;;;17.57;100.00;99933.19;5312701;28;20553;-67
2023/08/01 10:16:51;;;;;;;10.75;4.93;;;;;;;17.69;100.00;99936.25;5312933;28;20855;-67
2023/08/01 10:19:24;;;;;;;9.30;4.45;;;;;;;17.93;100.00;99939.72;5313745;28;20050;-69
2023/08/01 10:21:56;;;;;;;8.23;4.57;;;;;;;18.22;100.00;99934.28;5312160;28;20541;-67
2023/08/01 10:24:29;;;;;;;11.77;5.03;;;;;;;18.28;100.00;99930.00;5313189;28;20035;-67
2023/08/01 10:27:13;;;;;;;10.57;4.35;;;;;;;18.49;100.00;99934.56;5312508;28;20038;-67
2023/08/01 10:29:55;;;;;;;9.98;4.32;;;;;;;18.31;100.00;99931.47;5316952;28;20031;-67
2023/08/01 10:32:37;;;;;;;10.25;4.10;;;;;;;18.28;100.00;99939.97;5308527;28;20378;-67
2023/08/01 10:35:09;;;;;;;9.13;3.80;;;;;;;18.19;100.00;99931.94;5306212;28;20046;-68
2023/08/01 10:37:47;;;;;;;9.13;3.63;;;;;;;18.20;100.00;99928.22;5302840;28;20031;-68
2023/08/01 10:40:18;;;;;;;10.23;3.33;;;;;;;18.18;100.00;99933.00;5311425;28;20044;-67
2023/08/01 10:42:50;;;;;;;8.32;3.50;;;;;;;18.15;100.00;99922.56;5308460;28;20428;-68
2023/08/01 10:45:25;;;;;;;9.32;3.40;;;;;;;18.23;100.00;99941.34;5305091;28;20040;-68
2023/08/01 10:48:07;;;;;;;11.02;3.70;;;;;;;18.32;100.00;99938.53;5305145;28;20031;-68
2023/08/01 10:50:39;;;;;;;10.13;3.65;;;;;;;18.12;100.00;99930.19;5314612;28;20027;-68
2023/08/01 10:53:10;;;;;;;8.27;3.70;;;;;;;18.09;100.00;99933.28;5311804;28;20028;-68
2023/08/01 10:55:44;;;;;;;9.00;3.30;;;;;;;18.05;100.00;99951.72;5311584;28;20086;-68
2023/08/01 10:58:16;;;;;;;8.50;3.20;;;;;;;18.20;100.00;99944.44;5314684;28;20073;-67
2023/08/01 11:00:57;;;;;;;9.27;3.17;;;;;;;18.21;100.00;99962.28;5317270;28;20107;-68
2023/08/01 11:03:36;;;;;;;11.23;4.35;;;;;;;18.20;100.00;99952.53;5313561;28;20084;-68
2023/08/01 11:06:07;;;;;;;11.10;3.38;;;;;;;18.18;100.00;99946.50;5314129;28;20027;-68
2023/08/01 11:08:41;;;;;;;8.52;3.65;;;;;;;18.11;100.00;99950.13;5316637;28;20047;-68
2023/08/01 11:11:14;;;;;;;8.70;2.80;;;;;;;17.92;100.00;99955.06;5317138;28;20047;-68
2023/08/01 11:13:53;;;;;;;8.98;2.95;;;;;;;17.85;100.00;99959.53;5319626;28;20095;-68
2023/08/01 11:16:25;;;;;;;9.95;3.42;;;;;;;17.75;100.00;99959.78;5321526;28;20118;-67
2023/08/01 11:18:56;;;;;;;12.02;3.08;;;;;;;17.67;100.00;99967.16;5320027;28;20028;-67
2023/08/01 11:21:28;;;;;;;9.02;3.20;;;;;;;17.69;100.00;99965.94;5320541;28;20055;-68
2023/08/01 11:23:59;;;;;;;8.40;3.15;;;;;;;17.69;100.00;99960.53;5317629;28;20020;-67
2023/08/01 11:26:32;;;;;;;7.78;2.75;;;;;;;17.59;100.00;99958.13;5311786;28;20118;-67
2023/08/01 11:29:04;;;;;;;7.43;3.17;;;;;;;17.59;100.00;99968.91;5307812;28;20020;-67
2023/08/01 11:31:35;;;;;;;8.25;2.72;;;;;;;17.65;100.00;99967.34;5312717;28;20026;-68
2023/08/01 11:34:10;;;;;;;10.90;3.63;;;;;;;17.64;100.00;99963.81;5313744;28;20051;-67
2023/08/01 11:36:41;;;;;;;10.18;3.08;;;;;;;17.62;100.00;99970.38;5310218;28;20088;-67